Weather at Ovar Air Base

Public forecast

Using degrees Celsius for public forecast. Weather courtesy of forecast.io.

Current aviation weather report (METAR) for Ovar Air Base

Report is more than 2 hours old.

2024/07/13 22:00 (retrieved 3 hours ago)

LPOV 132200Z VRB01KT 9999 FEW016 15/13 Q1014

Aviation forecast (TAF) for Ovar Air Base

Forecast is more than 6 hours old.

2024/07/13 18:06 (retrieved 7 hours ago)

TAF LPOV 131702Z 1318/1418 30008KT CAVOK BECMG 1320/1323 VRB02KT PROB30 1400/1408 3000 BR BKN006 BECMG 1408/1410 19008KT SCT015 BKN020